createdAt,value
2018-05-18T00:00:01.014Z,12.26
2018-05-18T00:00:05.173Z,12.18
2018-05-18T00:00:09.385Z,12.16
2018-05-18T00:00:13.703Z,12.13
2018-05-18T00:00:17.803Z,12.18
2018-05-18T00:00:21.903Z,12.19
2018-05-18T00:00:26.008Z,12.21
2018-05-18T00:00:30.111Z,12.18
2018-05-18T00:00:34.104Z,12.16
2018-05-18T00:00:38.205Z,12.29
2018-05-18T00:00:42.523Z,12.18
2018-05-18T00:00:46.840Z,12.16
2018-05-18T00:00:51.057Z,12.22
2018-05-18T00:00:55.376Z,12.15
2018-05-18T00:00:59.694Z,12.18
2018-05-18T00:01:03.805Z,12.18
2018-05-18T00:01:08.133Z,12.16
2018-05-18T00:01:12.343Z,12.16
2018-05-18T00:01:16.659Z,12.21
2018-05-18T00:01:20.981Z,12.18
2018-05-18T00:01:25.190Z,12.12
2018-05-18T00:01:29.297Z,12.15
2018-05-18T00:01:33.508Z,12.15
2018-05-18T00:01:37.727Z,12.16
2018-05-18T00:01:41.828Z,12.16
2018-05-18T00:01:46.036Z,12.18
2018-05-18T00:01:50.251Z,12.12
2018-05-18T00:01:54.478Z,12.15
2018-05-18T00:01:58.799Z,12.16
2018-05-18T00:02:03.023Z,12.13
2018-05-18T00:02:07.018Z,12.21
2018-05-18T00:02:11.121Z,12.21
2018-05-18T00:02:15.334Z,12.15
2018-05-18T00:02:19.655Z,12.16
2018-05-18T00:02:23.837Z,12.12
2018-05-18T00:02:27.830Z,12.12
2018-05-18T00:02:31.938Z,12.15
2018-05-18T00:02:36.266Z,12.15
2018-05-18T00:02:40.367Z,12.13
2018-05-18T00:02:44.685Z,12.08
2018-05-18T00:02:48.900Z,12.18
2018-05-18T00:02:52.895Z,12.16
2018-05-18T00:02:57.099Z,12.11
2018-05-18T00:03:01.204Z,12.16
2018-05-18T00:03:05.520Z,12.18
2018-05-18T00:03:09.628Z,12.12
2018-05-18T00:03:13.845Z,12.16
2018-05-18T00:03:17.948Z,12.07
2018-05-18T00:03:22.164Z,12.13
2018-05-18T00:03:26.479Z,12.16
2018-05-18T00:03:30.790Z,12.11
2018-05-18T00:03:34.885Z,12.08
2018-05-18T00:03:39.089Z,12.13
2018-05-18T00:03:43.404Z,12.19
2018-05-18T00:03:47.612Z,12.13
2018-05-18T00:03:51.714Z,12.16
2018-05-18T00:03:55.922Z,12.12
2018-05-18T00:04:00.240Z,12.15
2018-05-18T00:04:04.456Z,12.07
2018-05-18T00:04:08.663Z,12.16
2018-05-18T00:04:12.876Z,12.08
2018-05-18T00:04:17.089Z,12.07
2018-05-18T00:04:21.408Z,12.16
2018-05-18T00:04:25.617Z,12.12
2018-05-18T00:04:29.613Z,12.15
2018-05-18T00:04:33.823Z,12.05
2018-05-18T00:04:38.038Z,12.08
2018-05-18T00:04:42.358Z,12.13
2018-05-18T00:04:46.478Z,12.05
2018-05-18T00:04:50.578Z,12.15
2018-05-18T00:04:54.675Z,12.05
2018-05-18T00:04:58.992Z,12.05
2018-05-18T00:05:03.219Z,12.04
2018-05-18T00:05:07.538Z,12.12
2018-05-18T00:05:11.532Z,12.12
2018-05-18T00:05:15.741Z,12.04
2018-05-18T00:05:20.055Z,12.18
2018-05-18T00:05:24.163Z,12.07
2018-05-18T00:05:28.374Z,12.03
2018-05-18T00:05:32.584Z,12.05
2018-05-18T00:05:36.582Z,12.07
2018-05-18T00:05:40.906Z,12.07
2018-05-18T00:05:45.134Z,12.13
2018-05-18T00:05:49.460Z,12.18
2018-05-18T00:05:53.564Z,12.16
2018-05-18T00:05:57.809Z,12.07
2018-05-18T00:06:02.134Z,12.08
2018-05-18T00:06:05.915Z,12.05
2018-05-18T00:06:10.132Z,12.12
2018-05-18T00:06:14.239Z,12.18
2018-05-18T00:06:18.557Z,12.05
2018-05-18T00:06:22.888Z,12.01
2018-05-18T00:06:27.102Z,12.04
2018-05-18T00:06:31.329Z,12.04
2018-05-18T00:06:35.648Z,12.08
2018-05-18T00:06:39.648Z,12.04
2018-05-18T00:06:43.753Z,12.12
2018-05-18T00:06:48.079Z,12.13
2018-05-18T00:06:52.186Z,12.04
2018-05-18T00:06:56.402Z,12.01
2018-05-18T00:07:00.507Z,12.08
2018-05-18T00:07:04.772Z,12.04
2018-05-18T00:07:08.879Z,12.07
2018-05-18T00:07:13.096Z,12.07
2018-05-18T00:07:17.203Z,12.08
2018-05-18T00:07:21.420Z,12.04
2018-05-18T00:07:25.543Z,12
2018-05-18T00:07:29.867Z,12.04
2018-05-18T00:07:33.972Z,12.07
2018-05-18T00:07:38.186Z,12.08
2018-05-18T00:07:42.397Z,12.15
2018-05-18T00:07:46.612Z,12
2018-05-18T00:07:50.816Z,12.11
2018-05-18T00:07:54.921Z,12.12
2018-05-18T00:07:59.138Z,12
2018-05-18T00:08:03.513Z,12.08
2018-05-18T00:08:07.735Z,12.13
2018-05-18T00:08:11.847Z,12.03
2018-05-18T00:08:15.844Z,12.15
2018-05-18T00:08:20.162Z,12.12
2018-05-18T00:08:24.378Z,12.12
2018-05-18T00:08:28.485Z,12.12
2018-05-18T00:08:32.815Z,12.11
2018-05-18T00:08:37.139Z,12.11
2018-05-18T00:08:41.362Z,12.13
2018-05-18T00:08:45.695Z,12.07
2018-05-18T00:08:49.800Z,12.11
2018-05-18T00:08:54.022Z,12.12
2018-05-18T00:08:58.238Z,12.05
2018-05-18T00:09:02.561Z,12.11
2018-05-18T00:09:06.783Z,12.05
2018-05-18T00:09:10.893Z,12.11
2018-05-18T00:09:15.105Z,12.04
2018-05-18T00:09:19.223Z,12.08
2018-05-18T00:09:23.446Z,12.08
2018-05-18T00:09:27.494Z,12.05
2018-05-18T00:09:31.504Z,12.11
2018-05-18T00:09:35.513Z,12.18
2018-05-18T00:09:39.728Z,12.01
2018-05-18T00:09:43.943Z,12.01
2018-05-18T00:09:48.046Z,12.08
2018-05-18T00:09:52.155Z,12.11
2018-05-18T00:09:56.275Z,12.11
2018-05-18T00:10:00.482Z,12.15
2018-05-18T00:10:04.692Z,12.05
2018-05-18T00:10:08.697Z,12.04
2018-05-18T00:10:12.807Z,12.03
2018-05-18T00:10:17.131Z,12.07
2018-05-18T00:10:21.348Z,12.08
2018-05-18T00:10:25.671Z,12.07
2018-05-18T00:10:29.780Z,11.98
2018-05-18T00:10:33.990Z,12.15
2018-05-18T00:10:38.089Z,12.01
2018-05-18T00:10:42.201Z,12
2018-05-18T00:10:46.576Z,12.07
2018-05-18T00:10:50.692Z,12.04
2018-05-18T00:10:54.906Z,12.18
2018-05-18T00:10:59.117Z,12.07
2018-05-18T00:11:03.004Z,12.11
2018-05-18T00:11:07.216Z,12.05
2018-05-18T00:11:11.438Z,12.01
2018-05-18T00:11:15.668Z,12.11
2018-05-18T00:11:19.988Z,12.01
2018-05-18T00:11:24.201Z,12
2018-05-18T00:11:28.521Z,12
2018-05-18T00:11:32.524Z,12.05
2018-05-18T00:11:36.629Z,12.11
2018-05-18T00:11:40.628Z,12.03
2018-05-18T00:11:44.634Z,12.08
2018-05-18T00:11:48.530Z,12
2018-05-18T00:11:52.856Z,12.05
2018-05-18T00:11:56.756Z,12.03
2018-05-18T00:12:00.532Z,12.05
2018-05-18T00:12:04.636Z,12.03
2018-05-18T00:12:08.741Z,11.98
2018-05-18T00:12:12.736Z,12.03
2018-05-18T00:12:16.842Z,12.03
2018-05-18T00:12:21.159Z,12.03
2018-05-18T00:12:25.369Z,12.03
2018-05-18T00:12:29.580Z,11.98
2018-05-18T00:12:33.576Z,12.01
2018-05-18T00:12:37.681Z,11.98
2018-05-18T00:12:41.789Z,12.08
2018-05-18T00:12:46.000Z,12
2018-05-18T00:12:50.211Z,11.98
2018-05-18T00:12:54.317Z,12.01
2018-05-18T00:12:58.634Z,12.04
2018-05-18T00:13:02.733Z,12.04
2018-05-18T00:13:06.944Z,12
2018-05-18T00:13:11.253Z,12.03
2018-05-18T00:13:15.572Z,12.01
2018-05-18T00:13:19.782Z,12.03
2018-05-18T00:13:24.119Z,11.98
2018-05-18T00:13:28.432Z,12.03
2018-05-18T00:13:32.642Z,12.01
2018-05-18T00:13:36.966Z,12
2018-05-18T00:13:41.294Z,12.08
2018-05-18T00:13:45.619Z,12
2018-05-18T00:13:49.835Z,12
2018-05-18T00:13:54.156Z,12.03
2018-05-18T00:13:58.506Z,12.03
2018-05-18T00:14:02.652Z,12
2018-05-18T00:14:06.767Z,12.03
2018-05-18T00:14:11.094Z,12.03
2018-05-18T00:14:15.094Z,12.01
2018-05-18T00:14:19.443Z,11.94
2018-05-18T00:14:23.654Z,12
2018-05-18T00:14:27.868Z,12
2018-05-18T00:14:32.081Z,12
2018-05-18T00:14:36.404Z,12
2018-05-18T00:14:40.617Z,11.93
2018-05-18T00:14:44.944Z,12.01
2018-05-18T00:14:49.205Z,12.03
2018-05-18T00:14:53.204Z,12.07
2018-05-18T00:14:57.536Z,12.01
2018-05-18T00:15:01.750Z,12.03
2018-05-18T00:15:05.873Z,11.97
2018-05-18T00:15:09.981Z,12.01
2018-05-18T00:15:14.198Z,11.98
2018-05-18T00:15:18.305Z,12.01
2018-05-18T00:15:22.517Z,11.96
2018-05-18T00:15:26.726Z,12.01
2018-05-18T00:15:30.827Z,12
2018-05-18T00:15:35.042Z,12.03
2018-05-18T00:15:39.171Z,12.03
2018-05-18T00:15:43.265Z,12
2018-05-18T00:15:47.257Z,12
2018-05-18T00:15:51.475Z,11.97
2018-05-18T00:15:55.694Z,12.01
2018-05-18T00:16:00.009Z,12
2018-05-18T00:16:04.234Z,12.01
2018-05-18T00:16:08.588Z,12.01
2018-05-18T00:16:12.910Z,11.97
2018-05-18T00:16:17.225Z,11.93
2018-05-18T00:16:21.607Z,11.97
2018-05-18T00:16:25.934Z,11.94
2018-05-18T00:16:30.142Z,11.96
2018-05-18T00:16:34.360Z,12.01
2018-05-18T00:16:38.687Z,12.01
2018-05-18T00:16:42.905Z,11.96
2018-05-18T00:16:47.125Z,11.94
2018-05-18T00:16:51.442Z,11.94
2018-05-18T00:16:55.761Z,11.93
2018-05-18T00:17:00.058Z,11.98
2018-05-18T00:17:04.161Z,12
2018-05-18T00:17:08.496Z,11.93
2018-05-18T00:17:12.878Z,11.9
2018-05-18T00:17:17.204Z,11.96
2018-05-18T00:17:21.412Z,11.94
2018-05-18T00:17:25.626Z,11.94
2018-05-18T00:17:29.855Z,12
2018-05-18T00:17:34.065Z,11.93
2018-05-18T00:17:38.191Z,11.98
2018-05-18T00:17:42.292Z,12.01
2018-05-18T00:17:46.617Z,12.01
2018-05-18T00:17:50.943Z,12
2018-05-18T00:17:55.269Z,11.87
2018-05-18T00:17:59.588Z,11.94
2018-05-18T00:18:03.693Z,11.94
2018-05-18T00:18:07.902Z,11.98
2018-05-18T00:18:12.232Z,12
2018-05-18T00:18:16.553Z,11.97
2018-05-18T00:18:20.760Z,12.03
2018-05-18T00:18:25.075Z,11.93
2018-05-18T00:18:29.414Z,11.96
2018-05-18T00:18:33.769Z,12
2018-05-18T00:18:37.982Z,11.93
2018-05-18T00:18:42.192Z,11.93
2018-05-18T00:18:46.299Z,11.96
2018-05-18T00:18:50.511Z,11.97
2018-05-18T00:18:54.721Z,11.94
2018-05-18T00:18:59.044Z,11.9
2018-05-18T00:19:03.365Z,11.98
2018-05-18T00:19:07.256Z,11.9
2018-05-18T00:19:11.584Z,11.9
2018-05-18T00:19:15.684Z,11.85
2018-05-18T00:19:19.676Z,11.98
2018-05-18T00:19:23.992Z,11.94
2018-05-18T00:19:28.007Z,11.94
2018-05-18T00:19:32.222Z,11.94
2018-05-18T00:19:36.440Z,11.96
2018-05-18T00:19:40.542Z,12
2018-05-18T00:19:44.532Z,12.01
2018-05-18T00:19:48.739Z,11.94
2018-05-18T00:19:52.946Z,11.93
2018-05-18T00:19:57.268Z,11.98
2018-05-18T00:20:01.473Z,11.97
2018-05-18T00:20:05.469Z,11.94
2018-05-18T00:20:09.466Z,11.93
2018-05-18T00:20:13.674Z,11.96
2018-05-18T00:20:17.994Z,11.93
2018-05-18T00:20:22.098Z,11.88
2018-05-18T00:20:26.217Z,11.9
2018-05-18T00:20:30.424Z,11.97
2018-05-18T00:20:34.636Z,11.9
2018-05-18T00:20:38.959Z,11.94
2018-05-18T00:20:43.259Z,11.96
2018-05-18T00:20:47.477Z,11.98
2018-05-18T00:20:51.686Z,11.96
2018-05-18T00:20:55.792Z,11.87
2018-05-18T00:20:59.907Z,11.94
2018-05-18T00:21:04.125Z,11.94
2018-05-18T00:21:08.227Z,11.94
2018-05-18T00:21:12.336Z,11.9
2018-05-18T00:21:16.655Z,11.96
2018-05-18T00:21:20.882Z,11.96
2018-05-18T00:21:25.091Z,11.93
2018-05-18T00:21:29.412Z,11.9
2018-05-18T00:21:33.631Z,11.96
2018-05-18T00:21:37.732Z,11.93
2018-05-18T00:21:41.941Z,11.96
2018-05-18T00:21:46.157Z,11.93
2018-05-18T00:21:50.483Z,11.96
2018-05-18T00:21:54.691Z,11.9
2018-05-18T00:21:58.797Z,11.88
2018-05-18T00:22:02.996Z,11.96
2018-05-18T00:22:07.210Z,11.94
2018-05-18T00:22:11.528Z,11.94
2018-05-18T00:22:15.849Z,11.93
2018-05-18T00:22:20.185Z,11.94
2018-05-18T00:22:24.505Z,11.93
2018-05-18T00:22:28.619Z,11.88
2018-05-18T00:22:32.942Z,11.87
2018-05-18T00:22:37.042Z,11.96
2018-05-18T00:22:41.361Z,11.88
2018-05-18T00:22:45.571Z,11.9
2018-05-18T00:22:49.669Z,11.98
2018-05-18T00:22:53.881Z,11.96
2018-05-18T00:22:58.090Z,11.96
2018-05-18T00:23:02.197Z,11.93
2018-05-18T00:23:06.414Z,11.93
2018-05-18T00:23:10.630Z,11.87
2018-05-18T00:23:14.835Z,11.96
2018-05-18T00:23:19.152Z,11.96
2018-05-18T00:23:23.361Z,11.97
2018-05-18T00:23:27.680Z,11.94
2018-05-18T00:23:32.003Z,11.87
2018-05-18T00:23:36.103Z,11.94
2018-05-18T00:23:40.312Z,11.93
2018-05-18T00:23:44.516Z,11.9
2018-05-18T00:23:48.727Z,11.88
2018-05-18T00:23:52.833Z,11.94
2018-05-18T00:23:56.929Z,11.9
2018-05-18T00:24:01.141Z,11.9
2018-05-18T00:24:05.354Z,11.96
2018-05-18T00:24:09.568Z,11.93
2018-05-18T00:24:13.888Z,11.93
2018-05-18T00:24:17.987Z,11.85
2018-05-18T00:24:22.087Z,11.93
2018-05-18T00:24:26.300Z,11.9
2018-05-18T00:24:30.297Z,11.88
2018-05-18T00:24:34.616Z,11.93
2018-05-18T00:24:38.822Z,11.9
2018-05-18T00:24:43.024Z,11.93
2018-05-18T00:24:47.234Z,11.84
2018-05-18T00:24:51.442Z,11.88
2018-05-18T00:24:55.652Z,11.88
2018-05-18T00:24:59.856Z,11.93
2018-05-18T00:25:04.062Z,11.88
2018-05-18T00:25:08.163Z,11.88
2018-05-18T00:25:12.490Z,11.87
2018-05-18T00:25:16.709Z,11.9
2018-05-18T00:25:20.914Z,11.97
2018-05-18T00:25:25.128Z,11.93
2018-05-18T00:25:29.458Z,11.88
2018-05-18T00:25:33.784Z,11.88
2018-05-18T00:25:37.991Z,11.93
2018-05-18T00:25:42.289Z,11.93
2018-05-18T00:25:46.494Z,11.93
2018-05-18T00:25:50.703Z,11.88
2018-05-18T00:25:55.021Z,11.88
2018-05-18T00:25:59.350Z,11.87
2018-05-18T00:26:03.345Z,11.88
2018-05-18T00:26:07.566Z,11.85
2018-05-18T00:26:11.882Z,11.93
2018-05-18T00:26:16.099Z,11.93
2018-05-18T00:26:20.210Z,11.93
2018-05-18T00:26:24.528Z,11.93
2018-05-18T00:26:28.858Z,11.93
2018-05-18T00:26:33.172Z,11.93
2018-05-18T00:26:37.501Z,11.93
2018-05-18T00:26:41.849Z,11.87
2018-05-18T00:26:46.060Z,11.9
2018-05-18T00:26:50.164Z,11.87
2018-05-18T00:26:54.385Z,11.97
2018-05-18T00:26:58.386Z,11.87
2018-05-18T00:27:02.383Z,11.88
2018-05-18T00:27:06.377Z,11.93
2018-05-18T00:27:10.698Z,11.93
2018-05-18T00:27:14.797Z,11.9
2018-05-18T00:27:18.900Z,11.88
2018-05-18T00:27:23.214Z,11.9
2018-05-18T00:27:27.593Z,11.87
2018-05-18T00:27:31.910Z,11.93
2018-05-18T00:27:36.003Z,11.88
2018-05-18T00:27:40.319Z,11.78
2018-05-18T00:27:44.525Z,11.88
2018-05-18T00:27:48.744Z,11.88
2018-05-18T00:27:52.852Z,11.88
2018-05-18T00:27:57.168Z,11.9
2018-05-18T00:28:01.265Z,11.84
2018-05-18T00:28:05.489Z,11.93
2018-05-18T00:28:09.695Z,11.82
2018-05-18T00:28:13.929Z,11.93
2018-05-18T00:28:18.252Z,11.78
2018-05-18T00:28:22.360Z,11.79
2018-05-18T00:28:26.677Z,11.96
2018-05-18T00:28:31.002Z,11.94
2018-05-18T00:28:35.227Z,11.93
2018-05-18T00:28:39.334Z,11.9
2018-05-18T00:28:43.655Z,11.93
2018-05-18T00:28:47.756Z,11.77
2018-05-18T00:28:51.963Z,11.87
2018-05-18T00:28:55.959Z,11.88
2018-05-18T00:29:00.273Z,11.87
2018-05-18T00:29:04.395Z,11.75
2018-05-18T00:29:08.713Z,11.82
2018-05-18T00:29:12.706Z,11.85
2018-05-18T00:29:16.812Z,11.9
2018-05-18T00:29:21.129Z,11.97
2018-05-18T00:29:25.353Z,11.87
2018-05-18T00:29:29.458Z,11.78
2018-05-18T00:29:33.662Z,11.93
2018-05-18T00:29:37.988Z,11.78
2018-05-18T00:29:42.311Z,11.81
2018-05-18T00:29:46.633Z,11.78
2018-05-18T00:29:50.854Z,11.78
2018-05-18T00:29:55.061Z,11.88
2018-05-18T00:29:59.271Z,11.85
2018-05-18T00:30:03.488Z,11.78
2018-05-18T00:30:07.704Z,11.77
2018-05-18T00:30:11.690Z,11.81
2018-05-18T00:30:16.010Z,11.88
2018-05-18T00:30:20.326Z,11.82
2018-05-18T00:30:24.539Z,11.77
2018-05-18T00:30:28.748Z,11.81
2018-05-18T00:30:32.961Z,11.77
2018-05-18T00:30:37.174Z,11.88
2018-05-18T00:30:41.402Z,11.75
2018-05-18T00:30:45.513Z,11.82
2018-05-18T00:30:49.835Z,11.78
2018-05-18T00:30:53.936Z,11.93
2018-05-18T00:30:57.821Z,11.81
2018-05-18T00:31:01.932Z,11.81
2018-05-18T00:31:06.055Z,11.93
2018-05-18T00:31:10.380Z,11.78
2018-05-18T00:31:14.591Z,11.85
2018-05-18T00:31:18.694Z,11.87
2018-05-18T00:31:23.013Z,11.9
2018-05-18T00:31:27.015Z,11.77
2018-05-18T00:31:31.342Z,11.9
2018-05-18T00:31:35.547Z,11.88
2018-05-18T00:31:39.538Z,11.88
2018-05-18T00:31:43.747Z,11.78
2018-05-18T00:31:47.959Z,11.79
2018-05-18T00:31:52.062Z,11.84
2018-05-18T00:31:56.278Z,11.78
2018-05-18T00:32:00.676Z,11.78
2018-05-18T00:32:04.677Z,11.77
2018-05-18T00:32:08.896Z,11.74
2018-05-18T00:32:13.195Z,11.82
2018-05-18T00:32:17.407Z,11.81
2018-05-18T00:32:21.530Z,11.78
2018-05-18T00:32:25.855Z,11.85
2018-05-18T00:32:29.963Z,11.87
2018-05-18T00:32:34.282Z,11.84
2018-05-18T00:32:38.497Z,11.81
2018-05-18T00:32:42.812Z,11.74
2018-05-18T00:32:47.030Z,11.85
2018-05-18T00:32:51.327Z,11.85
2018-05-18T00:32:55.648Z,11.87
2018-05-18T00:32:59.865Z,11.88
2018-05-18T00:33:04.394Z,11.75
2018-05-18T00:33:08.604Z,11.93
2018-05-18T00:33:12.929Z,11.77
2018-05-18T00:33:17.261Z,11.79
2018-05-18T00:33:21.570Z,11.74
2018-05-18T00:33:25.887Z,11.72
2018-05-18T00:33:30.099Z,11.77
2018-05-18T00:33:34.304Z,11.81
2018-05-18T00:33:38.520Z,11.79
2018-05-18T00:33:42.832Z,11.81
2018-05-18T00:33:46.943Z,11.74
2018-05-18T00:33:51.150Z,11.87
2018-05-18T00:33:55.357Z,11.82
2018-05-18T00:33:59.567Z,11.84
2018-05-18T00:34:03.780Z,11.78
2018-05-18T00:34:07.995Z,11.82
2018-05-18T00:34:12.308Z,11.81
2018-05-18T00:34:16.634Z,11.77
2018-05-18T00:34:20.839Z,11.82
2018-05-18T00:34:25.050Z,11.72
2018-05-18T00:34:29.264Z,11.79
2018-05-18T00:34:33.583Z,11.78
2018-05-18T00:34:37.683Z,11.84
2018-05-18T00:34:41.674Z,11.75
2018-05-18T00:34:45.992Z,11.84
2018-05-18T00:34:50.306Z,11.79
2018-05-18T00:34:54.630Z,11.75
2018-05-18T00:34:58.948Z,11.75
2018-05-18T00:35:03.065Z,11.79
2018-05-18T00:35:07.165Z,11.82
2018-05-18T00:35:11.387Z,11.85
2018-05-18T00:35:15.698Z,11.78
2018-05-18T00:35:19.899Z,11.85
2018-05-18T00:35:24.107Z,11.81
2018-05-18T00:35:28.440Z,11.87
2018-05-18T00:35:32.762Z,11.82
2018-05-18T00:35:36.969Z,11.77
2018-05-18T00:35:41.184Z,11.82
2018-05-18T00:35:45.397Z,11.82
2018-05-18T00:35:49.500Z,11.93
2018-05-18T00:35:53.575Z,11.69
2018-05-18T00:35:57.786Z,11.75
2018-05-18T00:36:01.891Z,11.81
2018-05-18T00:36:05.888Z,11.75
2018-05-18T00:36:10.100Z,11.82
2018-05-18T00:36:14.311Z,11.77
2018-05-18T00:36:18.410Z,11.82
2018-05-18T00:36:22.593Z,11.79
2018-05-18T00:36:26.928Z,11.82
2018-05-18T00:36:31.145Z,11.75
2018-05-18T00:36:35.465Z,11.79
2018-05-18T00:36:39.678Z,11.82
2018-05-18T00:36:43.992Z,11.82
2018-05-18T00:36:48.094Z,11.72
2018-05-18T00:36:52.421Z,11.82
2018-05-18T00:36:56.530Z,11.84
2018-05-18T00:37:00.744Z,11.87
2018-05-18T00:37:04.739Z,11.79
2018-05-18T00:37:08.842Z,11.82
2018-05-18T00:37:12.839Z,11.81
2018-05-18T00:37:17.155Z,11.82
2018-05-18T00:37:21.364Z,11.84
2018-05-18T00:37:25.768Z,11.87
2018-05-18T00:37:29.994Z,11.81
2018-05-18T00:37:34.209Z,11.82
2018-05-18T00:37:38.418Z,11.74
2018-05-18T00:37:42.515Z,11.81
2018-05-18T00:37:46.734Z,11.82
2018-05-18T00:37:51.055Z,11.79
2018-05-18T00:37:55.382Z,11.78
2018-05-18T00:37:59.489Z,11.85
2018-05-18T00:38:03.815Z,11.84
2018-05-18T00:38:08.132Z,11.78
2018-05-18T00:38:12.345Z,11.81
2018-05-18T00:38:16.664Z,11.75
2018-05-18T00:38:20.760Z,11.84
2018-05-18T00:38:25.082Z,11.75
2018-05-18T00:38:29.297Z,11.81
2018-05-18T00:38:33.396Z,11.85
2018-05-18T00:38:37.676Z,11.81
2018-05-18T00:38:41.994Z,11.82
2018-05-18T00:38:46.095Z,11.87
2018-05-18T00:38:50.318Z,11.81
2018-05-18T00:38:54.652Z,11.79
2018-05-18T00:38:58.766Z,11.87
2018-05-18T00:39:02.763Z,11.81
2018-05-18T00:39:06.971Z,11.81
2018-05-18T00:39:11.188Z,11.87
2018-05-18T00:39:15.506Z,11.79
2018-05-18T00:39:19.584Z,11.87
2018-05-18T00:39:23.913Z,11.87
2018-05-18T00:39:28.306Z,11.78
2018-05-18T00:39:32.637Z,11.75
2018-05-18T00:39:36.956Z,11.84
2018-05-18T00:39:41.067Z,11.78
2018-05-18T00:39:45.383Z,11.79
2018-05-18T00:39:49.700Z,11.81
2018-05-18T00:39:54.063Z,11.84
2018-05-18T00:39:58.489Z,11.78
2018-05-18T00:40:03.106Z,11.81
2018-05-18T00:40:07.813Z,11.82
2018-05-18T00:40:12.021Z,11.84
2018-05-18T00:40:16.127Z,11.79
2018-05-18T00:40:20.364Z,11.87
2018-05-18T00:40:24.695Z,11.74
2018-05-18T00:40:29.028Z,11.77
2018-05-18T00:40:33.430Z,11.84
2018-05-18T00:40:37.636Z,11.87
2018-05-18T00:40:41.959Z,11.79
2018-05-18T00:40:46.165Z,11.85
2018-05-18T00:40:50.378Z,11.87
2018-05-18T00:40:54.704Z,11.9
2018-05-18T00:40:58.917Z,11.77
2018-05-18T00:41:02.917Z,11.79
2018-05-18T00:41:06.926Z,11.82
2018-05-18T00:41:11.025Z,11.81
2018-05-18T00:41:15.338Z,11.88
2018-05-18T00:41:19.554Z,11.84
2018-05-18T00:41:23.889Z,11.79
2018-05-18T00:41:27.988Z,11.78
2018-05-18T00:41:32.198Z,11.9
2018-05-18T00:41:36.305Z,11.78
2018-05-18T00:41:40.521Z,11.81
2018-05-18T00:41:44.622Z,11.82
2018-05-18T00:41:48.833Z,11.7
2018-05-18T00:41:53.158Z,11.82
2018-05-18T00:41:57.048Z,11.87
2018-05-18T00:42:01.148Z,11.85
2018-05-18T00:42:05.402Z,11.78
2018-05-18T00:42:09.613Z,11.81
2018-05-18T00:42:13.817Z,11.82
2018-05-18T00:42:18.180Z,11.78
2018-05-18T00:42:22.391Z,11.81
2018-05-18T00:42:26.705Z,11.78
2018-05-18T00:42:30.819Z,11.79
2018-05-18T00:42:35.025Z,11.84
2018-05-18T00:42:39.238Z,11.82
2018-05-18T00:42:43.447Z,11.84
2018-05-18T00:42:47.658Z,11.81
2018-05-18T00:42:51.979Z,11.84
2018-05-18T00:42:56.303Z,11.87
2018-05-18T00:43:00.514Z,11.78
2018-05-18T00:43:04.633Z,11.85
2018-05-18T00:43:08.737Z,11.81
2018-05-18T00:43:12.948Z,11.85
2018-05-18T00:43:17.152Z,11.81
2018-05-18T00:43:21.143Z,11.85
2018-05-18T00:43:25.140Z,11.79
2018-05-18T00:43:29.143Z,11.87
2018-05-18T00:43:33.364Z,11.84
2018-05-18T00:43:37.256Z,11.87
2018-05-18T00:43:41.461Z,11.84
2018-05-18T00:43:45.679Z,11.82
2018-05-18T00:43:49.889Z,11.88
2018-05-18T00:43:54.207Z,11.78
2018-05-18T00:43:58.309Z,11.74
2018-05-18T00:44:02.535Z,11.78
2018-05-18T00:44:06.423Z,11.82
2018-05-18T00:44:10.430Z,11.81
2018-05-18T00:44:14.761Z,11.85
2018-05-18T00:44:18.977Z,11.84
2018-05-18T00:44:23.295Z,11.84
2018-05-18T00:44:27.641Z,11.82
2018-05-18T00:44:31.844Z,11.78
2018-05-18T00:44:36.169Z,11.85
2018-05-18T00:44:40.501Z,11.79
2018-05-18T00:44:44.607Z,11.79
2018-05-18T00:44:48.720Z,11.85
2018-05-18T00:44:52.932Z,11.79
2018-05-18T00:44:57.247Z,11.82
2018-05-18T00:45:01.360Z,11.84
2018-05-18T00:45:05.355Z,11.78
2018-05-18T00:45:09.458Z,11.81
2018-05-18T00:45:13.569Z,11.82
2018-05-18T00:45:17.779Z,11.87
2018-05-18T00:45:21.987Z,11.82
2018-05-18T00:45:26.197Z,11.84
2018-05-18T00:45:30.570Z,11.87
2018-05-18T00:45:34.885Z,11.81
2018-05-18T00:45:39.093Z,11.87
2018-05-18T00:45:43.196Z,11.85
2018-05-18T00:45:47.531Z,11.84
2018-05-18T00:45:51.744Z,11.82
2018-05-18T00:45:56.069Z,11.78
2018-05-18T00:46:00.066Z,11.82
2018-05-18T00:46:04.063Z,11.78
2018-05-18T00:46:08.175Z,11.82
2018-05-18T00:46:12.382Z,11.79
2018-05-18T00:46:16.585Z,11.85
2018-05-18T00:46:20.801Z,11.74
2018-05-18T00:46:25.119Z,11.81
2018-05-18T00:46:29.332Z,11.78
2018-05-18T00:46:33.667Z,11.77
2018-05-18T00:46:38.004Z,11.81
2018-05-18T00:46:42.216Z,11.81
2018-05-18T00:46:46.314Z,11.82
2018-05-18T00:46:50.617Z,11.84
2018-05-18T00:46:54.934Z,11.84
2018-05-18T00:46:59.044Z,11.81
2018-05-18T00:47:03.257Z,11.78
2018-05-18T00:47:07.251Z,11.79
2018-05-18T00:47:11.243Z,11.81
2018-05-18T00:47:15.456Z,11.82
2018-05-18T00:47:19.773Z,11.84
2018-05-18T00:47:23.888Z,11.78
2018-05-18T00:47:28.205Z,11.79
2018-05-18T00:47:32.530Z,11.78
2018-05-18T00:47:36.853Z,11.75
2018-05-18T00:47:40.956Z,11.79
2018-05-18T00:47:45.170Z,11.74
2018-05-18T00:47:49.277Z,11.84
2018-05-18T00:47:53.379Z,11.82
2018-05-18T00:47:57.743Z,11.82
2018-05-18T00:48:01.950Z,11.84
2018-05-18T00:48:06.059Z,11.82
2018-05-18T00:48:10.160Z,11.78
2018-05-18T00:48:14.480Z,11.81
2018-05-18T00:48:18.593Z,11.9
2018-05-18T00:48:22.914Z,11.74
2018-05-18T00:48:27.240Z,11.81
2018-05-18T00:48:31.449Z,11.78
2018-05-18T00:48:35.760Z,11.77
2018-05-18T00:48:40.080Z,11.78
2018-05-18T00:48:44.304Z,11.75
2018-05-18T00:48:48.407Z,11.7
2018-05-18T00:48:52.615Z,11.79
2018-05-18T00:48:56.823Z,11.81
2018-05-18T00:49:01.041Z,11.78
2018-05-18T00:49:05.249Z,11.82
2018-05-18T00:49:09.462Z,11.84
2018-05-18T00:49:13.685Z,11.82
2018-05-18T00:49:17.685Z,11.81
2018-05-18T00:49:22.010Z,11.77
2018-05-18T00:49:26.161Z,11.75
2018-05-18T00:49:30.263Z,11.78
2018-05-18T00:49:34.579Z,11.84
2018-05-18T00:49:38.791Z,11.87
2018-05-18T00:49:42.998Z,11.79
2018-05-18T00:49:47.316Z,11.78
2018-05-18T00:49:51.530Z,11.81
2018-05-18T00:49:55.755Z,11.84
2018-05-18T00:49:59.851Z,11.78
2018-05-18T00:50:03.952Z,11.72
2018-05-18T00:50:08.058Z,11.74
2018-05-18T00:50:12.270Z,11.87
2018-05-18T00:50:16.379Z,11.74
2018-05-18T00:50:20.703Z,11.81
2018-05-18T00:50:24.983Z,11.81
2018-05-18T00:50:29.381Z,11.84
2018-05-18T00:50:33.597Z,11.78
2018-05-18T00:50:37.804Z,11.77
2018-05-18T00:50:42.126Z,11.72
2018-05-18T00:50:46.334Z,11.82
2018-05-18T00:50:50.545Z,11.77
2018-05-18T00:50:54.756Z,11.82
2018-05-18T00:50:58.966Z,11.74
2018-05-18T00:51:03.372Z,11.75
2018-05-18T00:51:07.368Z,11.84
2018-05-18T00:51:11.686Z,11.84
2018-05-18T00:51:15.688Z,11.72
2018-05-18T00:51:19.789Z,11.81
2018-05-18T00:51:23.994Z,11.78
2018-05-18T00:51:28.206Z,11.84
2018-05-18T00:51:32.618Z,11.75
2018-05-18T00:51:36.829Z,11.7
2018-05-18T00:51:41.034Z,11.72
2018-05-18T00:51:45.359Z,11.77
2018-05-18T00:51:49.564Z,11.78
2018-05-18T00:51:53.879Z,11.81
2018-05-18T00:51:58.259Z,11.72
2018-05-18T00:52:02.571Z,11.74
2018-05-18T00:52:06.561Z,11.78
2018-05-18T00:52:10.659Z,11.77
2018-05-18T00:52:14.982Z,11.74
2018-05-18T00:52:19.083Z,11.78
2018-05-18T00:52:23.290Z,11.77
2018-05-18T00:52:27.605Z,11.81
2018-05-18T00:52:31.927Z,11.69
2018-05-18T00:52:36.144Z,11.79
2018-05-18T00:52:40.526Z,11.78
2018-05-18T00:52:44.847Z,11.79
2018-05-18T00:52:49.068Z,11.77
2018-05-18T00:52:53.177Z,11.78
2018-05-18T00:52:57.403Z,11.7
2018-05-18T00:53:01.620Z,11.81
2018-05-18T00:53:05.728Z,11.81
2018-05-18T00:53:10.054Z,11.78
2018-05-18T00:53:14.262Z,11.74
2018-05-18T00:53:18.593Z,11.72
2018-05-18T00:53:22.915Z,11.74
2018-05-18T00:53:27.124Z,11.81
2018-05-18T00:53:31.333Z,11.77
2018-05-18T00:53:35.551Z,11.77
2018-05-18T00:53:39.657Z,11.81
2018-05-18T00:53:43.945Z,11.78
2018-05-18T00:53:48.150Z,11.74
2018-05-18T00:53:52.262Z,11.7
2018-05-18T00:53:56.573Z,11.79
2018-05-18T00:54:00.781Z,11.81
2018-05-18T00:54:04.896Z,11.75
2018-05-18T00:54:09.111Z,11.84
2018-05-18T00:54:13.434Z,11.74
2018-05-18T00:54:17.431Z,11.78
2018-05-18T00:54:21.831Z,11.79
2018-05-18T00:54:26.067Z,11.81